sensor_id;sensor_type;location;lat;lon;timestamp;temperature;humidity
7496;DHT22;3789;47.064;15.482;2022-10-16T00:00:00;10.80;99.90
7496;DHT22;3789;47.064;15.482;2022-10-16T00:02:33;10.80;99.90
7496;DHT22;3789;47.064;15.482;2022-10-16T00:08:44;10.80;99.90
7496;DHT22;3789;47.064;15.482;2022-10-16T00:13:54;10.60;99.90
7496;DHT22;3789;47.064;15.482;2022-10-16T00:16:23;10.70;99.90
7496;DHT22;3789;47.064;15.482;2022-10-16T00:19:01;10.80;99.90
7496;DHT22;3789;47.064;15.482;2022-10-16T00:21:36;10.90;99.90
7496;DHT22;3789;47.064;15.482;2022-10-16T00:24:08;10.90;99.90
7496;DHT22;3789;47.064;15.482;2022-10-16T00:26:39;10.90;99.90
7496;DHT22;3789;47.064;15.482;2022-10-16T00:29:09;10.80;99.90
7496;DHT22;3789;47.064;15.482;2022-10-16T00:31:38;10.90;99.90
7496;DHT22;3789;47.064;15.482;2022-10-16T00:34:07;11.00;99.90
7496;DHT22;3789;47.064;15.482;2022-10-16T00:36:38;11.00;99.90
7496;DHT22;3789;47.064;15.482;2022-10-16T00:39:07;11.00;99.90
7496;DHT22;3789;47.064;15.482;2022-10-16T00:41:44;11.00;99.90
7496;DHT22;3789;47.064;15.482;2022-10-16T00:44:52;11.00;99.90
7496;DHT22;3789;47.064;15.482;2022-10-16T00:50:30;11.00;99.90
7496;DHT22;3789;47.064;15.482;2022-10-16T00:53:00;11.10;99.90
7496;DHT22;3789;47.064;15.482;2022-10-16T00:55:29;11.10;99.90
7496;DHT22;3789;47.064;15.482;2022-10-16T00:58:08;11.10;99.90
7496;DHT22;3789;47.064;15.482;2022-10-16T01:00:36;11.10;99.90
7496;DHT22;3789;47.064;15.482;2022-10-16T01:03:34;11.10;99.90
7496;DHT22;3789;47.064;15.482;2022-10-16T01:06:23;11.10;99.90
7496;DHT22;3789;47.064;15.482;2022-10-16T01:09:26;11.10;99.90
7496;DHT22;3789;47.064;15.482;2022-10-16T01:12:26;11.10;99.90
7496;DHT22;3789;47.064;15.482;2022-10-16T01:18:48;11.10;99.90
7496;DHT22;3789;47.064;15.482;2022-10-16T01:21:33;11.10;99.90
7496;DHT22;3789;47.064;15.482;2022-10-16T01:24:33;11.20;99.90
7496;DHT22;3789;47.064;15.482;2022-10-16T01:27:25;11.20;99.90
7496;DHT22;3789;47.064;15.482;2022-10-16T01:30:26;11.30;99.90
7496;DHT22;3789;47.064;15.482;2022-10-16T01:35:47;11.30;99.90
7496;DHT22;3789;47.064;15.482;2022-10-16T01:38:36;11.30;99.90
7496;DHT22;3789;47.064;15.482;2022-10-16T01:41:33;11.20;99.90
7496;DHT22;3789;47.064;15.482;2022-10-16T01:44:18;11.20;99.90
7496;DHT22;3789;47.064;15.482;2022-10-16T01:46:49;11.20;99.90
7496;DHT22;3789;47.064;15.482;2022-10-16T01:49:18;11.20;99.90
7496;DHT22;3789;47.064;15.482;2022-10-16T01:51:50;11.20;99.90
7496;DHT22;3789;47.064;15.482;2022-10-16T01:54:20;11.20;99.90
7496;DHT22;3789;47.064;15.482;2022-10-16T01:56:49;11.30;99.90
7496;DHT22;3789;47.064;15.482;2022-10-16T01:59:20;11.30;99.90
7496;DHT22;3789;47.064;15.482;2022-10-16T02:01:52;11.20;99.90
7496;DHT22;3789;47.064;15.482;2022-10-16T02:04:26;11.30;99.90
7496;DHT22;3789;47.064;15.482;2022-10-16T02:06:55;11.20;99.90
7496;DHT22;3789;47.064;15.482;2022-10-16T02:09:22;11.20;99.90
7496;DHT22;3789;47.064;15.482;2022-10-16T02:11:50;11.10;99.90
7496;DHT22;3789;47.064;15.482;2022-10-16T02:14:19;11.10;99.90
7496;DHT22;3789;47.064;15.482;2022-10-16T02:16:46;11.10;99.90
7496;DHT22;3789;47.064;15.482;2022-10-16T02:19:15;11.20;99.90
7496;DHT22;3789;47.064;15.482;2022-10-16T02:22:03;11.20;99.90
7496;DHT22;3789;47.064;15.482;2022-10-16T02:27:38;11.20;99.90
7496;DHT22;3789;47.064;15.482;2022-10-16T02:32:42;11.30;99.90
7496;DHT22;3789;47.064;15.482;2022-10-16T02:35:11;11.30;99.90
7496;DHT22;3789;47.064;15.482;2022-10-16T02:37:40;11.30;99.90
7496;DHT22;3789;47.064;15.482;2022-10-16T02:40:09;11.30;99.90
7496;DHT22;3789;47.064;15.482;2022-10-16T02:42:39;11.30;99.90
7496;DHT22;3789;47.064;15.482;2022-10-16T02:45:08;11.20;99.90
7496;DHT22;3789;47.064;15.482;2022-10-16T02:47:35;11.20;99.90
7496;DHT22;3789;47.064;15.482;2022-10-16T02:50:03;11.20;99.90
7496;DHT22;3789;47.064;15.482;2022-10-16T02:52:31;11.10;99.90
7496;DHT22;3789;47.064;15.482;2022-10-16T02:54:58;11.10;99.90
7496;DHT22;3789;47.064;15.482;2022-10-16T02:57:25;11.10;99.90
7496;DHT22;3789;47.064;15.482;2022-10-16T02:59:53;11.00;99.90
7496;DHT22;3789;47.064;15.482;2022-10-16T03:02:20;10.90;99.90
7496;DHT22;3789;47.064;15.482;2022-10-16T03:04:47;10.80;99.90
7496;DHT22;3789;47.064;15.482;2022-10-16T03:07:14;10.70;99.90
7496;DHT22;3789;47.064;15.482;2022-10-16T03:09:41;10.60;99.90
7496;DHT22;3789;47.064;15.482;2022-10-16T03:12:09;10.40;99.90
7496;DHT22;3789;47.064;15.482;2022-10-16T03:14:38;10.40;99.90
7496;DHT22;3789;47.064;15.482;2022-10-16T03:17:09;10.40;99.90
7496;DHT22;3789;47.064;15.482;2022-10-16T03:19:36;10.40;99.90
7496;DHT22;3789;47.064;15.482;2022-10-16T03:22:03;10.40;99.90
7496;DHT22;3789;47.064;15.482;2022-10-16T03:24:31;10.40;99.90
7496;DHT22;3789;47.064;15.482;2022-10-16T03:26:58;10.40;99.90
7496;DHT22;3789;47.064;15.482;2022-10-16T03:29:25;10.40;99.90
7496;DHT22;3789;47.064;15.482;2022-10-16T03:31:52;10.40;99.90
7496;DHT22;3789;47.064;15.482;2022-10-16T03:34:19;10.40;99.90
7496;DHT22;3789;47.064;15.482;2022-10-16T03:36:46;10.30;99.90
7496;DHT22;3789;47.064;15.482;2022-10-16T03:39:13;10.20;99.90
7496;DHT22;3789;47.064;15.482;2022-10-16T03:41:40;10.20;99.90
7496;DHT22;3789;47.064;15.482;2022-10-16T03:44:08;10.20;99.90
7496;DHT22;3789;47.064;15.482;2022-10-16T03:46:35;10.20;99.90
7496;DHT22;3789;47.064;15.482;2022-10-16T03:49:02;10.20;99.90
7496;DHT22;3789;47.064;15.482;2022-10-16T03:51:34;10.20;99.90
7496;DHT22;3789;47.064;15.482;2022-10-16T03:54:01;10.20;99.90
7496;DHT22;3789;47.064;15.482;2022-10-16T03:56:28;10.30;99.90
7496;DHT22;3789;47.064;15.482;2022-10-16T03:58:56;10.30;99.90
7496;DHT22;3789;47.064;15.482;2022-10-16T04:01:23;10.40;99.90
7496;DHT22;3789;47.064;15.482;2022-10-16T04:03:50;10.40;99.90
7496;DHT22;3789;47.064;15.482;2022-10-16T04:06:17;10.40;99.90
7496;DHT22;3789;47.064;15.482;2022-10-16T04:08:44;10.50;99.90
7496;DHT22;3789;47.064;15.482;2022-10-16T04:11:11;10.50;99.90
7496;DHT22;3789;47.064;15.482;2022-10-16T04:13:38;10.50;99.90
7496;DHT22;3789;47.064;15.482;2022-10-16T04:16:05;10.50;99.90
7496;DHT22;3789;47.064;15.482;2022-10-16T04:18:33;10.50;99.90
7496;DHT22;3789;47.064;15.482;2022-10-16T04:21:04;10.60;99.90
7496;DHT22;3789;47.064;15.482;2022-10-16T04:23:32;10.50;99.90
7496;DHT22;3789;47.064;15.482;2022-10-16T04:25:59;10.60;99.90
7496;DHT22;3789;47.064;15.482;2022-10-16T04:28:27;10.70;99.90
7496;DHT22;3789;47.064;15.482;2022-10-16T04:30:55;10.70;99.90
7496;DHT22;3789;47.064;15.482;2022-10-16T04:33:22;10.70;99.90
7496;DHT22;3789;47.064;15.482;2022-10-16T04:35:56;10.70;99.90
7496;DHT22;3789;47.064;15.482;2022-10-16T04:38:24;10.80;99.90
7496;DHT22;3789;47.064;15.482;2022-10-16T04:40:51;10.70;99.90
7496;DHT22;3789;47.064;15.482;2022-10-16T04:43:19;10.70;99.90
7496;DHT22;3789;47.064;15.482;2022-10-16T04:45:47;10.80;99.90
7496;DHT22;3789;47.064;15.482;2022-10-16T04:48:14;10.80;99.90
7496;DHT22;3789;47.064;15.482;2022-10-16T04:50:41;10.80;99.90
7496;DHT22;3789;47.064;15.482;2022-10-16T04:53:09;10.80;99.90
7496;DHT22;3789;47.064;15.482;2022-10-16T04:55:36;10.70;99.90
7496;DHT22;3789;47.064;15.482;2022-10-16T04:58:04;10.70;99.90
7496;DHT22;3789;47.064;15.482;2022-10-16T05:00:32;10.70;99.90
7496;DHT22;3789;47.064;15.482;2022-10-16T05:02:59;10.70;99.90
7496;DHT22;3789;47.064;15.482;2022-10-16T05:05:27;10.80;99.90
7496;DHT22;3789;47.064;15.482;2022-10-16T05:07:54;10.70;99.90
7496;DHT22;3789;47.064;15.482;2022-10-16T05:10:22;10.70;99.90
7496;DHT22;3789;47.064;15.482;2022-10-16T05:12:49;10.70;99.90
7496;DHT22;3789;47.064;15.482;2022-10-16T05:15:18;10.70;99.90
7496;DHT22;3789;47.064;15.482;2022-10-16T05:17:45;10.70;99.90
7496;DHT22;3789;47.064;15.482;2022-10-16T05:20:12;10.70;99.90
7496;DHT22;3789;47.064;15.482;2022-10-16T05:22:39;10.70;99.90
7496;DHT22;3789;47.064;15.482;2022-10-16T05:25:07;10.70;99.90
7496;DHT22;3789;47.064;15.482;2022-10-16T05:27:34;10.70;99.90
7496;DHT22;3789;47.064;15.482;2022-10-16T05:30:01;10.70;99.90
7496;DHT22;3789;47.064;15.482;2022-10-16T05:32:28;10.70;99.90
7496;DHT22;3789;47.064;15.482;2022-10-16T05:34:55;10.70;99.90
7496;DHT22;3789;47.064;15.482;2022-10-16T05:37:22;10.70;99.90
7496;DHT22;3789;47.064;15.482;2022-10-16T05:39:50;10.70;99.90
7496;DHT22;3789;47.064;15.482;2022-10-16T05:42:17;10.70;99.90
7496;DHT22;3789;47.064;15.482;2022-10-16T05:44:45;10.80;99.90
7496;DHT22;3789;47.064;15.482;2022-10-16T05:47:15;10.80;99.90
7496;DHT22;3789;47.064;15.482;2022-10-16T05:49:42;10.90;99.90
7496;DHT22;3789;47.064;15.482;2022-10-16T05:52:09;10.90;99.90
7496;DHT22;3789;47.064;15.482;2022-10-16T05:54:36;10.90;99.90
7496;DHT22;3789;47.064;15.482;2022-10-16T05:57:03;10.90;99.90
7496;DHT22;3789;47.064;15.482;2022-10-16T05:59:32;11.00;99.90
7496;DHT22;3789;47.064;15.482;2022-10-16T06:01:59;10.90;99.90
7496;DHT22;3789;47.064;15.482;2022-10-16T06:04:26;11.00;99.90
7496;DHT22;3789;47.064;15.482;2022-10-16T06:06:53;11.20;99.90
7496;DHT22;3789;47.064;15.482;2022-10-16T06:09:20;11.20;99.90
7496;DHT22;3789;47.064;15.482;2022-10-16T06:11:48;11.20;99.90
7496;DHT22;3789;47.064;15.482;2022-10-16T06:14:15;11.20;99.90
7496;DHT22;3789;47.064;15.482;2022-10-16T06:16:42;11.30;99.90
7496;DHT22;3789;47.064;15.482;2022-10-16T06:19:09;11.20;99.90
7496;DHT22;3789;47.064;15.482;2022-10-16T06:21:36;11.20;99.90
7496;DHT22;3789;47.064;15.482;2022-10-16T06:24:03;11.20;99.90
7496;DHT22;3789;47.064;15.482;2022-10-16T06:26:31;11.20;99.90
7496;DHT22;3789;47.064;15.482;2022-10-16T06:28:59;11.10;99.90
7496;DHT22;3789;47.064;15.482;2022-10-16T06:31:27;11.10;99.90
7496;DHT22;3789;47.064;15.482;2022-10-16T06:33:58;11.10;99.90
7496;DHT22;3789;47.064;15.482;2022-10-16T06:36:25;11.10;99.90
7496;DHT22;3789;47.064;15.482;2022-10-16T06:38:53;11.10;99.90
7496;DHT22;3789;47.064;15.482;2022-10-16T06:41:22;11.20;99.90
7496;DHT22;3789;47.064;15.482;2022-10-16T06:43:49;11.20;99.90
7496;DHT22;3789;47.064;15.482;2022-10-16T06:46:20;11.40;99.90
7496;DHT22;3789;47.064;15.482;2022-10-16T06:48:48;11.50;99.90
7496;DHT22;3789;47.064;15.482;2022-10-16T06:51:22;11.70;99.90
7496;DHT22;3789;47.064;15.482;2022-10-16T06:53:52;12.00;99.90
7496;DHT22;3789;47.064;15.482;2022-10-16T06:56:30;12.20;99.90
7496;DHT22;3789;47.064;15.482;2022-10-16T06:58:58;12.40;99.90
7496;DHT22;3789;47.064;15.482;2022-10-16T07:01:26;12.70;99.90
7496;DHT22;3789;47.064;15.482;2022-10-16T07:03:53;12.90;99.90
7496;DHT22;3789;47.064;15.482;2022-10-16T07:06:23;13.10;99.90
7496;DHT22;3789;47.064;15.482;2022-10-16T07:08:51;13.30;99.90
7496;DHT22;3789;47.064;15.482;2022-10-16T07:11:21;13.40;99.90
7496;DHT22;3789;47.064;15.482;2022-10-16T07:13:50;13.70;99.90
7496;DHT22;3789;47.064;15.482;2022-10-16T07:16:27;13.90;99.90
7496;DHT22;3789;47.064;15.482;2022-10-16T07:18:55;14.20;99.90
7496;DHT22;3789;47.064;15.482;2022-10-16T07:21:32;14.50;99.90
7496;DHT22;3789;47.064;15.482;2022-10-16T07:24:10;15.00;99.90
7496;DHT22;3789;47.064;15.482;2022-10-16T07:26:38;15.40;99.90
7496;DHT22;3789;47.064;15.482;2022-10-16T07:29:20;15.70;99.90
7496;DHT22;3789;47.064;15.482;2022-10-16T07:31:48;15.80;99.90
7496;DHT22;3789;47.064;15.482;2022-10-16T07:34:17;15.90;99.90
7496;DHT22;3789;47.064;15.482;2022-10-16T07:36:48;16.20;99.90
7496;DHT22;3789;47.064;15.482;2022-10-16T07:39:16;16.50;99.90
7496;DHT22;3789;47.064;15.482;2022-10-16T07:41:43;17.00;99.90
7496;DHT22;3789;47.064;15.482;2022-10-16T07:44:10;17.50;99.90
7496;DHT22;3789;47.064;15.482;2022-10-16T07:46:38;18.00;99.90
7496;DHT22;3789;47.064;15.482;2022-10-16T07:49:05;18.30;99.90
7496;DHT22;3789;47.064;15.482;2022-10-16T07:51:32;18.40;99.90
7496;DHT22;3789;47.064;15.482;2022-10-16T07:53:59;18.40;99.90
7496;DHT22;3789;47.064;15.482;2022-10-16T07:56:26;18.20;99.90
7496;DHT22;3789;47.064;15.482;2022-10-16T07:58:55;18.60;99.90
7496;DHT22;3789;47.064;15.482;2022-10-16T08:01:29;18.70;99.90
7496;DHT22;3789;47.064;15.482;2022-10-16T08:03:58;19.10;99.90
7496;DHT22;3789;47.064;15.482;2022-10-16T08:06:26;19.40;99.90
7496;DHT22;3789;47.064;15.482;2022-10-16T08:08:58;19.90;99.90
7496;DHT22;3789;47.064;15.482;2022-10-16T08:11:29;20.50;99.90
7496;DHT22;3789;47.064;15.482;2022-10-16T08:14:00;21.20;99.90
7496;DHT22;3789;47.064;15.482;2022-10-16T08:16:31;22.30;99.90
7496;DHT22;3789;47.064;15.482;2022-10-16T08:18:59;24.00;99.90
7496;DHT22;3789;47.064;15.482;2022-10-16T08:21:31;24.80;99.90
7496;DHT22;3789;47.064;15.482;2022-10-16T08:23:58;24.60;99.90
7496;DHT22;3789;47.064;15.482;2022-10-16T08:26:30;23.80;99.90
7496;DHT22;3789;47.064;15.482;2022-10-16T08:28:58;22.90;99.90
7496;DHT22;3789;47.064;15.482;2022-10-16T08:31:28;22.20;99.90
7496;DHT22;3789;47.064;15.482;2022-10-16T08:33:57;21.50;99.90
7496;DHT22;3789;47.064;15.482;2022-10-16T08:36:38;20.80;99.90
7496;DHT22;3789;47.064;15.482;2022-10-16T08:39:07;20.20;99.90
7496;DHT22;3789;47.064;15.482;2022-10-16T08:44:48;20.30;99.90
7496;DHT22;3789;47.064;15.482;2022-10-16T08:50:38;19.90;99.90
7496;DHT22;3789;47.064;15.482;2022-10-16T08:53:23;20.00;99.90
7496;DHT22;3789;47.064;15.482;2022-10-16T08:55:53;19.70;99.90
7496;DHT22;3789;47.064;15.482;2022-10-16T08:58:27;19.50;99.90
7496;DHT22;3789;47.064;15.482;2022-10-16T09:01:12;19.50;99.90
7496;DHT22;3789;47.064;15.482;2022-10-16T09:07:08;15.30;99.90
7496;DHT22;3789;47.064;15.482;2022-10-16T09:10:26;13.10;99.90
7496;DHT22;3789;47.064;15.482;2022-10-16T09:13:40;11.60;99.90
7496;DHT22;3789;47.064;15.482;2022-10-16T09:16:34;10.90;99.90
7496;DHT22;3789;47.064;15.482;2022-10-16T09:19:41;10.70;99.90
7496;DHT22;3789;47.064;15.482;2022-10-16T09:22:17;10.60;99.90
7496;DHT22;3789;47.064;15.482;2022-10-16T09:24:49;11.10;99.90
7496;DHT22;3789;47.064;15.482;2022-10-16T09:27:17;12.40;99.90
7496;DHT22;3789;47.064;15.482;2022-10-16T09:29:48;13.50;99.90
7496;DHT22;3789;47.064;15.482;2022-10-16T09:32:23;14.50;99.90
7496;DHT22;3789;47.064;15.482;2022-10-16T09:34:58;15.40;99.90
7496;DHT22;3789;47.064;15.482;2022-10-16T09:37:31;16.10;99.90
7496;DHT22;3789;47.064;15.482;2022-10-16T09:40:05;16.90;99.90
7496;DHT22;3789;47.064;15.482;2022-10-16T09:42:37;17.30;99.90
7496;DHT22;3789;47.064;15.482;2022-10-16T09:45:24;17.60;99.90
7496;DHT22;3789;47.064;15.482;2022-10-16T09:47:54;18.00;99.90
7496;DHT22;3789;47.064;15.482;2022-10-16T09:50:28;18.20;99.90
7496;DHT22;3789;47.064;15.482;2022-10-16T09:53:16;18.60;99.90
7496;DHT22;3789;47.064;15.482;2022-10-16T09:55:51;18.90;99.90
7496;DHT22;3789;47.064;15.482;2022-10-16T09:58:23;19.10;99.90
7496;DHT22;3789;47.064;15.482;2022-10-16T10:00:56;19.10;99.90
7496;DHT22;3789;47.064;15.482;2022-10-16T10:03:41;19.40;99.90
7496;DHT22;3789;47.064;15.482;2022-10-16T10:06:29;19.20;99.90
7496;DHT22;3789;47.064;15.482;2022-10-16T10:09:26;19.20;99.90
7496;DHT22;3789;47.064;15.482;2022-10-16T10:11:58;19.40;99.90
7496;DHT22;3789;47.064;15.482;2022-10-16T10:15:11;19.60;99.90
7496;DHT22;3789;47.064;15.482;2022-10-16T10:18:21;19.40;99.90
7496;DHT22;3789;47.064;15.482;2022-10-16T10:21:02;19.60;99.90
7496;DHT22;3789;47.064;15.482;2022-10-16T10:23:35;19.80;99.90
7496;DHT22;3789;47.064;15.482;2022-10-16T10:26:23;19.80;99.90
7496;DHT22;3789;47.064;15.482;2022-10-16T10:33:31;19.60;99.90
7496;DHT22;3789;47.064;15.482;2022-10-16T10:35:40;19.60;99.90
7496;DHT22;3789;47.064;15.482;2022-10-16T10:38:29;19.70;99.90
7496;DHT22;3789;47.064;15.482;2022-10-16T10:50:43;19.80;99.90
7496;DHT22;3789;47.064;15.482;2022-10-16T10:57:08;20.10;99.90
7496;DHT22;3789;47.064;15.482;2022-10-16T11:08:32;20.00;99.90
7496;DHT22;3789;47.064;15.482;2022-10-16T11:11:11;20.00;99.90
7496;DHT22;3789;47.064;15.482;2022-10-16T11:17:31;20.00;99.90
7496;DHT22;3789;47.064;15.482;2022-10-16T11:20:25;20.30;99.90
7496;DHT22;3789;47.064;15.482;2022-10-16T11:23:16;20.20;99.90
7496;DHT22;3789;47.064;15.482;2022-10-16T11:25:47;20.20;99.90
7496;DHT22;3789;47.064;15.482;2022-10-16T11:28:39;20.00;99.90
7496;DHT22;3789;47.064;15.482;2022-10-16T11:34:41;20.10;99.90
7496;DHT22;3789;47.064;15.482;2022-10-16T11:37:22;20.00;99.90
7496;DHT22;3789;47.064;15.482;2022-10-16T11:39:54;19.80;99.90
7496;DHT22;3789;47.064;15.482;2022-10-16T11:42:40;19.90;99.90
7496;DHT22;3789;47.064;15.482;2022-10-16T11:45:36;19.90;99.90
7496;DHT22;3789;47.064;15.482;2022-10-16T11:51:40;20.10;99.90
7496;DHT22;3789;47.064;15.482;2022-10-16T11:57:24;20.00;99.90
7496;DHT22;3789;47.064;15.482;2022-10-16T12:00:16;20.00;99.90
7496;DHT22;3789;47.064;15.482;2022-10-16T12:03:40;20.00;99.90
7496;DHT22;3789;47.064;15.482;2022-10-16T12:06:28;20.30;99.90
7496;DHT22;3789;47.064;15.482;2022-10-16T12:09:00;20.30;99.90
7496;DHT22;3789;47.064;15.482;2022-10-16T12:11:35;20.40;99.90
7496;DHT22;3789;47.064;15.482;2022-10-16T12:14:18;20.30;99.90
7496;DHT22;3789;47.064;15.482;2022-10-16T12:17:02;20.20;99.90
7496;DHT22;3789;47.064;15.482;2022-10-16T12:19:39;20.30;99.90
7496;DHT22;3789;47.064;15.482;2022-10-16T12:22:27;18.20;99.90
7496;DHT22;3789;47.064;15.482;2022-10-16T12:24:59;15.80;99.90
7496;DHT22;3789;47.064;15.482;2022-10-16T12:27:35;14.30;99.90
7496;DHT22;3789;47.064;15.482;2022-10-16T12:30:14;13.50;99.90
7496;DHT22;3789;47.064;15.482;2022-10-16T12:33:05;13.00;99.90
7496;DHT22;3789;47.064;15.482;2022-10-16T12:35:59;13.30;99.90
7496;DHT22;3789;47.064;15.482;2022-10-16T12:38:51;14.80;99.90
7496;DHT22;3789;47.064;15.482;2022-10-16T12:41:33;15.90;99.90
7496;DHT22;3789;47.064;15.482;2022-10-16T12:44:03;16.70;99.90
7496;DHT22;3789;47.064;15.482;2022-10-16T12:46:38;17.60;99.90
7496;DHT22;3789;47.064;15.482;2022-10-16T12:49:35;18.40;99.90
7496;DHT22;3789;47.064;15.482;2022-10-16T12:52:39;18.70;99.90
7496;DHT22;3789;47.064;15.482;2022-10-16T12:55:19;19.00;99.90
7496;DHT22;3789;47.064;15.482;2022-10-16T12:58:22;19.40;99.90
7496;DHT22;3789;47.064;15.482;2022-10-16T13:01:12;19.30;99.90
7496;DHT22;3789;47.064;15.482;2022-10-16T13:04:35;19.20;99.90
7496;DHT22;3789;47.064;15.482;2022-10-16T13:28:53;19.70;99.90
7496;DHT22;3789;47.064;15.482;2022-10-16T13:31:25;19.80;99.90
7496;DHT22;3789;47.064;15.482;2022-10-16T13:34:18;20.00;99.90
7496;DHT22;3789;47.064;15.482;2022-10-16T13:36:54;19.90;99.90
7496;DHT22;3789;47.064;15.482;2022-10-16T13:39:29;19.90;99.90
7496;DHT22;3789;47.064;15.482;2022-10-16T13:42:12;20.00;99.90
7496;DHT22;3789;47.064;15.482;2022-10-16T13:44:52;20.00;99.90
7496;DHT22;3789;47.064;15.482;2022-10-16T13:47:27;19.90;99.90
7496;DHT22;3789;47.064;15.482;2022-10-16T13:50:06;19.80;99.90
7496;DHT22;3789;47.064;15.482;2022-10-16T13:52:37;19.90;99.90
7496;DHT22;3789;47.064;15.482;2022-10-16T13:55:17;20.10;99.90
7496;DHT22;3789;47.064;15.482;2022-10-16T13:57:47;20.00;99.90
7496;DHT22;3789;47.064;15.482;2022-10-16T14:00:41;20.10;99.90
7496;DHT22;3789;47.064;15.482;2022-10-16T14:03:32;20.10;99.90
7496;DHT22;3789;47.064;15.482;2022-10-16T14:06:16;20.10;99.90
7496;DHT22;3789;47.064;15.482;2022-10-16T14:08:50;20.10;99.90
7496;DHT22;3789;47.064;15.482;2022-10-16T14:11:25;20.10;99.90
7496;DHT22;3789;47.064;15.482;2022-10-16T14:14:21;20.00;99.90
7496;DHT22;3789;47.064;15.482;2022-10-16T14:16:51;20.10;99.90
7496;DHT22;3789;47.064;15.482;2022-10-16T14:19:28;20.10;99.90
7496;DHT22;3789;47.064;15.482;2022-10-16T14:22:00;20.10;99.90
7496;DHT22;3789;47.064;15.482;2022-10-16T14:24:34;19.90;99.90
7496;DHT22;3789;47.064;15.482;2022-10-16T14:27:41;19.80;99.90
7496;DHT22;3789;47.064;15.482;2022-10-16T14:30:20;19.70;99.90
7496;DHT22;3789;47.064;15.482;2022-10-16T14:33:03;19.60;99.90
7496;DHT22;3789;47.064;15.482;2022-10-16T14:36:01;19.60;99.90
7496;DHT22;3789;47.064;15.482;2022-10-16T14:38:32;19.70;99.90
7496;DHT22;3789;47.064;15.482;2022-10-16T14:41:10;19.70;99.90
7496;DHT22;3789;47.064;15.482;2022-10-16T14:43:41;19.70;99.90
7496;DHT22;3789;47.064;15.482;2022-10-16T14:46:22;19.50;99.90
7496;DHT22;3789;47.064;15.482;2022-10-16T14:49:02;19.40;99.90
7496;DHT22;3789;47.064;15.482;2022-10-16T14:51:34;19.40;99.90
7496;DHT22;3789;47.064;15.482;2022-10-16T14:54:01;19.40;99.90
7496;DHT22;3789;47.064;15.482;2022-10-16T14:56:55;19.40;99.90
7496;DHT22;3789;47.064;15.482;2022-10-16T14:59:40;19.40;99.90
7496;DHT22;3789;47.064;15.482;2022-10-16T15:04:49;19.40;99.90
7496;DHT22;3789;47.064;15.482;2022-10-16T15:07:37;19.30;99.90
7496;DHT22;3789;47.064;15.482;2022-10-16T15:10:15;19.30;99.90
7496;DHT22;3789;47.064;15.482;2022-10-16T15:12:45;19.20;99.90
7496;DHT22;3789;47.064;15.482;2022-10-16T15:15:36;19.10;99.90
7496;DHT22;3789;47.064;15.482;2022-10-16T15:18:07;18.90;99.90
7496;DHT22;3789;47.064;15.482;2022-10-16T15:20:44;18.80;99.90
7496;DHT22;3789;47.064;15.482;2022-10-16T15:23:21;18.80;99.90
7496;DHT22;3789;47.064;15.482;2022-10-16T15:25:54;18.70;99.90
7496;DHT22;3789;47.064;15.482;2022-10-16T15:28:25;18.70;99.90
7496;DHT22;3789;47.064;15.482;2022-10-16T15:30:55;18.60;99.90
7496;DHT22;3789;47.064;15.482;2022-10-16T15:33:27;18.60;99.90
7496;DHT22;3789;47.064;15.482;2022-10-16T15:36:06;18.60;99.90
7496;DHT22;3789;47.064;15.482;2022-10-16T15:38:59;18.50;99.90
7496;DHT22;3789;47.064;15.482;2022-10-16T15:41:29;18.50;99.90
7496;DHT22;3789;47.064;15.482;2022-10-16T15:43:58;18.40;99.90
7496;DHT22;3789;47.064;15.482;2022-10-16T15:46:27;18.30;99.90
7496;DHT22;3789;47.064;15.482;2022-10-16T15:48:58;18.20;99.90
7496;DHT22;3789;47.064;15.482;2022-10-16T15:51:29;18.10;99.90
7496;DHT22;3789;47.064;15.482;2022-10-16T15:54:00;18.10;99.90
7496;DHT22;3789;47.064;15.482;2022-10-16T15:56:31;18.00;99.90
7496;DHT22;3789;47.064;15.482;2022-10-16T15:59:08;17.90;99.90
7496;DHT22;3789;47.064;15.482;2022-10-16T16:01:38;17.80;99.90
7496;DHT22;3789;47.064;15.482;2022-10-16T16:04:10;17.70;99.90
7496;DHT22;3789;47.064;15.482;2022-10-16T16:07:05;17.70;99.90
7496;DHT22;3789;47.064;15.482;2022-10-16T16:09:37;17.60;99.90
7496;DHT22;3789;47.064;15.482;2022-10-16T16:12:15;17.50;99.90
7496;DHT22;3789;47.064;15.482;2022-10-16T16:14:44;17.40;99.90
7496;DHT22;3789;47.064;15.482;2022-10-16T16:17:16;17.40;99.90
7496;DHT22;3789;47.064;15.482;2022-10-16T16:19:46;17.30;99.90
7496;DHT22;3789;47.064;15.482;2022-10-16T16:22:17;17.30;99.90
7496;DHT22;3789;47.064;15.482;2022-10-16T16:24:46;17.20;99.90
7496;DHT22;3789;47.064;15.482;2022-10-16T16:27:17;17.20;99.90
7496;DHT22;3789;47.064;15.482;2022-10-16T16:29:54;17.10;99.90
7496;DHT22;3789;47.064;15.482;2022-10-16T16:32:24;17.10;99.90
7496;DHT22;3789;47.064;15.482;2022-10-16T16:34:54;17.10;99.90
7496;DHT22;3789;47.064;15.482;2022-10-16T16:37:23;17.00;99.90
7496;DHT22;3789;47.064;15.482;2022-10-16T16:39:56;16.90;99.90
7496;DHT22;3789;47.064;15.482;2022-10-16T16:42:27;16.90;99.90
7496;DHT22;3789;47.064;15.482;2022-10-16T16:45:00;16.80;99.90
7496;DHT22;3789;47.064;15.482;2022-10-16T16:47:38;16.80;99.90
7496;DHT22;3789;47.064;15.482;2022-10-16T16:50:07;16.70;99.90
7496;DHT22;3789;47.064;15.482;2022-10-16T16:52:45;16.70;99.90
7496;DHT22;3789;47.064;15.482;2022-10-16T16:55:14;16.60;99.90
7496;DHT22;3789;47.064;15.482;2022-10-16T16:57:44;16.60;99.90
7496;DHT22;3789;47.064;15.482;2022-10-16T17:00:18;16.50;99.90
7496;DHT22;3789;47.064;15.482;2022-10-16T17:02:52;16.50;99.90
7496;DHT22;3789;47.064;15.482;2022-10-16T17:05:21;16.40;99.90
7496;DHT22;3789;47.064;15.482;2022-10-16T17:08:07;16.40;99.90
7496;DHT22;3789;47.064;15.482;2022-10-16T17:10:44;16.40;99.90
7496;DHT22;3789;47.064;15.482;2022-10-16T17:13:17;16.40;99.90
7496;DHT22;3789;47.064;15.482;2022-10-16T17:15:54;16.40;99.90
7496;DHT22;3789;47.064;15.482;2022-10-16T17:18:31;16.30;99.90
7496;DHT22;3789;47.064;15.482;2022-10-16T17:21:02;16.30;99.90
7496;DHT22;3789;47.064;15.482;2022-10-16T17:23:37;16.30;99.90
7496;DHT22;3789;47.064;15.482;2022-10-16T17:26:13;16.30;99.90
7496;DHT22;3789;47.064;15.482;2022-10-16T17:29:00;16.30;99.90
7496;DHT22;3789;47.064;15.482;2022-10-16T17:31:38;16.30;99.90
7496;DHT22;3789;47.064;15.482;2022-10-16T17:34:10;16.30;99.90
7496;DHT22;3789;47.064;15.482;2022-10-16T17:36:42;16.30;99.90
7496;DHT22;3789;47.064;15.482;2022-10-16T17:39:18;16.20;99.90
7496;DHT22;3789;47.064;15.482;2022-10-16T17:41:49;16.20;99.90
7496;DHT22;3789;47.064;15.482;2022-10-16T17:44:19;16.20;99.90
7496;DHT22;3789;47.064;15.482;2022-10-16T17:47:02;16.20;99.90
7496;DHT22;3789;47.064;15.482;2022-10-16T17:49:32;16.20;99.90
7496;DHT22;3789;47.064;15.482;2022-10-16T17:52:00;16.20;99.90
7496;DHT22;3789;47.064;15.482;2022-10-16T17:54:32;16.20;99.90
7496;DHT22;3789;47.064;15.482;2022-10-16T17:57:00;16.20;99.90
7496;DHT22;3789;47.064;15.482;2022-10-16T17:59:29;16.10;99.90
7496;DHT22;3789;47.064;15.482;2022-10-16T18:01:59;16.10;99.90
7496;DHT22;3789;47.064;15.482;2022-10-16T18:04:27;16.10;99.90
7496;DHT22;3789;47.064;15.482;2022-10-16T18:07:00;16.10;99.90